Time;durP1;ratioP1;P1;durP2;ratioP2;P2;SDS_P1;SDS_P2;PMS_P1;PMS_P2;Temp;Humidity;BMP_temperature;BMP_pressure;BME280_temperature;BME280_humidity;BME280_pressure;Samples;Min_cycle;Max_cycle;Signal;HPM_P1;HPM_P2
2021/05/20 00:01:04;;;;;;;2.12;0.70;;;13.70;73.30;;;;;;2341757;54;20982;-72
2021/05/20 00:03:30;;;;;;;1.80;0.70;;;13.70;73.30;;;;;;2342010;54;21020;-71
2021/05/20 00:05:56;;;;;;;1.83;0.65;;;13.70;73.20;;;;;;2337357;54;20942;-72
2021/05/20 00:08:23;;;;;;;1.37;0.60;;;13.60;73.10;;;;;;2356054;53;20990;-72
2021/05/20 00:10:54;;;;;;;1.77;0.60;;;13.70;73.10;;;;;;2342417;54;21029;-71
2021/05/20 00:13:20;;;;;;;1.27;0.50;;;13.70;73.90;;;;;;2341613;53;20943;-72
2021/05/20 00:15:46;;;;;;;1.95;0.70;;;13.70;73.20;;;;;;2582017;52;20948;-72
2021/05/20 00:18:15;;;;;;;1.25;0.40;;;13.70;73.20;;;;;;2338992;54;21025;-72
2021/05/20 00:20:41;;;;;;;1.40;0.50;;;13.70;73.20;;;;;;2581609;52;20907;-72
2021/05/20 00:23:07;;;;;;;1.55;0.52;;;13.70;73.10;;;;;;2341947;54;20954;-72
2021/05/20 00:25:33;;;;;;;1.80;0.60;;;13.70;73.10;;;;;;2353574;53;20976;-71
2021/05/20 00:28:00;;;;;;;1.80;0.62;;;13.70;73.10;;;;;;2337868;54;21391;-72
2021/05/20 00:30:27;;;;;;;1.08;0.55;;;13.70;73.20;;;;;;2339786;54;20902;-71
2021/05/20 00:32:53;;;;;;;1.27;0.50;;;13.60;73.10;;;;;;2342026;54;20930;-72
2021/05/20 00:35:20;;;;;;;1.60;0.68;;;13.60;73.10;;;;;;2341024;54;20964;-72
2021/05/20 00:37:46;;;;;;;1.35;0.50;;;13.60;73.10;;;;;;2391311;54;21553;-71
2021/05/20 00:40:14;;;;;;;0.95;0.50;;;13.60;73.20;;;;;;2338087;54;21014;-72
2021/05/20 00:42:47;;;;;;;1.20;0.50;;;13.60;73.90;;;;;;2333556;54;21661;-72
2021/05/20 00:45:13;;;;;;;1.40;0.50;;;13.60;73.10;;;;;;2335037;54;20922;-71
2021/05/20 00:47:39;;;;;;;1.58;0.50;;;13.60;73.20;;;;;;2339367;54;22037;-72
2021/05/20 00:50:07;;;;;;;0.82;0.50;;;13.60;73.30;;;;;;2323356;54;20950;-72
2021/05/20 00:52:34;;;;;;;1.15;0.50;;;13.60;73.30;;;;;;2336988;54;20962;-72
2021/05/20 00:55:01;;;;;;;1.30;0.70;;;13.60;73.40;;;;;;2342132;54;20994;-72
2021/05/20 00:57:28;;;;;;;1.30;0.60;;;13.60;73.40;;;;;;2341794;54;21581;-72
2021/05/20 01:00:10;;;;;;;1.30;0.60;;;13.60;73.50;;;;;;2342244;54;21070;-72
2021/05/20 01:02:37;;;;;;;1.80;0.70;;;13.60;73.10;;;;;;2337985;54;21013;-72
2021/05/20 01:05:06;;;;;;;2.45;0.70;;;13.60;73.40;;;;;;2342492;54;21395;-72
2021/05/20 01:07:32;;;;;;;1.12;0.50;;;13.60;73.30;;;;;;2337704;54;21425;-72
2021/05/20 01:09:58;;;;;;;1.23;0.52;;;13.60;73.40;;;;;;2340372;54;20942;-72
2021/05/20 01:12:24;;;;;;;1.35;0.68;;;13.60;73.40;;;;;;2342306;54;20922;-73
2021/05/20 01:14:51;;;;;;;1.35;0.60;;;13.60;73.20;;;;;;2470861;52;20964;-72
2021/05/20 01:17:17;;;;;;;2.10;0.65;;;13.60;73.20;;;;;;2340872;54;20954;-71
2021/05/20 01:19:45;;;;;;;2.40;0.80;;;13.60;73.30;;;;;;2342492;54;21490;-72
2021/05/20 01:22:12;;;;;;;2.03;0.70;;;13.60;73.90;;;;;;2394314;52;21054;-72
2021/05/20 01:24:39;;;;;;;1.12;0.50;;;13.50;73.20;;;;;;2322284;54;20956;-72
2021/05/20 01:27:06;;;;;;;2.67;0.50;;;13.50;73.30;;;;;;2329075;54;21462;-72
2021/05/20 01:29:33;;;;;;;1.73;0.68;;;13.50;73.30;;;;;;2342435;54;21030;-71
2021/05/20 01:31:59;;;;;;;0.95;0.50;;;13.50;73.20;;;;;;2344197;54;20918;-72
2021/05/20 01:34:26;;;;;;;1.83;0.70;;;13.50;73.20;;;;;;2335285;54;21002;-72
2021/05/20 01:36:53;;;;;;;1.65;0.70;;;13.50;73.20;;;;;;2338082;54;21556;-72
2021/05/20 01:39:19;;;;;;;1.17;0.50;;;13.50;73.10;;;;;;2338092;54;21509;-70
2021/05/20 01:41:46;;;;;;;2.03;0.70;;;13.50;73.00;;;;;;2346107;54;20985;-72
2021/05/20 01:44:13;;;;;;;1.48;0.60;;;13.50;73.10;;;;;;2323713;54;20941;-71
2021/05/20 01:46:39;;;;;;;1.27;0.45;;;13.50;73.10;;;;;;2338537;54;20970;-71
2021/05/20 01:49:09;;;;;;;1.00;0.50;;;13.50;73.10;;;;;;2342087;54;20910;-72
2021/05/20 01:51:36;;;;;;;0.73;0.40;;;13.40;73.00;;;;;;2543549;52;20921;-72
2021/05/20 01:54:02;;;;;;;1.02;0.50;;;13.50;73.20;;;;;;2587019;52;21107;-72
2021/05/20 01:56:35;;;;;;;1.25;0.50;;;13.40;73.10;;;;;;2334894;54;21036;-72
2021/05/20 01:59:01;;;;;;;1.08;0.40;;;13.50;73.20;;;;;;2399951;54;20952;-72
2021/05/20 02:01:27;;;;;;;0.95;0.30;;;13.50;73.30;;;;;;2333232;54;21448;-73
2021/05/20 02:03:56;;;;;;;0.60;0.40;;;13.40;73.30;;;;;;2333645;54;21444;-72
2021/05/20 02:06:22;;;;;;;0.65;0.30;;;13.50;73.40;;;;;;2330516;54;20994;-73
2021/05/20 02:08:49;;;;;;;1.02;0.50;;;13.40;73.30;;;;;;2345506;54;20934;-72
2021/05/20 02:11:15;;;;;;;1.23;0.43;;;13.40;73.30;;;;;;2333863;54;20995;-72
2021/05/20 02:13:42;;;;;;;1.20;0.52;;;13.40;73.40;;;;;;2342093;54;21041;-72
2021/05/20 02:16:08;;;;;;;1.40;0.40;;;13.40;73.50;;;;;;2344539;54;21805;-72
2021/05/20 02:18:37;;;;;;;0.50;0.30;;;13.40;73.50;;;;;;2335239;53;20974;-72
2021/05/20 02:21:04;;;;;;;0.70;0.30;;;13.50;73.60;;;;;;2584129;52;21092;-72
2021/05/20 02:23:34;;;;;;;0.82;0.43;;;13.40;73.50;;;;;;2336973;54;20934;-72
2021/05/20 02:26:01;;;;;;;1.12;0.40;;;13.50;73.40;;;;;;2585244;52;21032;-73
2021/05/20 02:28:27;;;;;;;1.05;0.40;;;13.40;73.30;;;;;;2336701;54;21986;-72
2021/05/20 02:30:53;;;;;;;0.80;0.40;;;13.50;73.30;;;;;;2340131;54;20923;-72
2021/05/20 02:33:20;;;;;;;1.67;0.50;;;13.40;73.20;;;;;;2337897;54;21358;-72
2021/05/20 02:35:46;;;;;;;0.90;0.40;;;13.50;73.20;;;;;;2337864;54;20914;-72
2021/05/20 02:38:13;;;;;;;1.20;0.40;;;13.50;73.20;;;;;;2342007;54;21018;-73
2021/05/20 02:40:39;;;;;;;1.27;0.40;;;13.50;73.30;;;;;;2342035;54;21010;-72
2021/05/20 02:43:10;;;;;;;1.58;0.50;;;13.50;73.40;;;;;;2338727;54;20936;-72
2021/05/20 02:45:37;;;;;;;0.60;0.30;;;13.50;73.40;;;;;;2532914;53;21012;-73
2021/05/20 02:48:04;;;;;;;1.33;0.50;;;13.40;73.10;;;;;;2327870;54;21064;-72
2021/05/20 02:50:31;;;;;;;0.80;0.40;;;13.40;73.00;;;;;;2546965;52;20930;-73
2021/05/20 02:52:57;;;;;;;0.90;0.43;;;13.40;73.10;;;;;;2342274;54;21566;-72
2021/05/20 02:55:23;;;;;;;1.70;0.40;;;13.40;73.10;;;;;;2337514;54;21021;-72
2021/05/20 02:58:01;;;;;;;1.10;0.40;;;13.40;73.20;;;;;;2423193;52;20990;-72
2021/05/20 03:00:32;;;;;;;0.73;0.40;;;13.40;73.10;;;;;;2342366;54;20930;-73
2021/05/20 03:03:02;;;;;;;0.90;0.40;;;13.40;73.70;;;;;;2341981;54;20986;-73
2021/05/20 03:05:32;;;;;;;1.27;0.50;;;13.40;72.90;;;;;;2342411;54;21729;-72
2021/05/20 03:07:58;;;;;;;0.75;0.40;;;13.40;72.90;;;;;;2341958;54;20990;-72
2021/05/20 03:10:25;;;;;;;1.58;0.52;;;13.40;72.90;;;;;;2588906;52;20963;-73
2021/05/20 03:12:52;;;;;;;1.02;0.40;;;13.30;73.00;;;;;;2340061;54;21099;-72
2021/05/20 03:15:18;;;;;;;1.65;0.60;;;13.30;73.10;;;;;;2585775;52;20970;-72
2021/05/20 03:17:45;;;;;;;1.35;0.50;;;13.30;73.00;;;;;;2342282;54;20943;-72
2021/05/20 03:20:12;;;;;;;2.47;0.65;;;13.30;73.00;;;;;;2352804;53;21722;-72
2021/05/20 03:22:39;;;;;;;0.93;0.40;;;13.30;73.00;;;;;;2588135;52;20927;-72
2021/05/20 03:25:07;;;;;;;0.80;0.40;;;13.30;73.20;;;;;;2341772;54;20927;-72
2021/05/20 03:27:33;;;;;;;1.37;0.60;;;13.30;73.20;;;;;;2341913;54;20946;-72
2021/05/20 03:30:05;;;;;;;1.40;0.80;;;13.30;73.30;;;;;;2588225;52;20922;-72
2021/05/20 03:32:31;;;;;;;1.67;0.50;;;13.30;73.30;;;;;;2342513;54;20930;-71
2021/05/20 03:35:00;;;;;;;1.12;0.50;;;13.30;73.30;;;;;;2341792;54;21414;-71
2021/05/20 03:37:27;;;;;;;1.27;0.52;;;13.30;73.30;;;;;;2339580;54;21016;-72
2021/05/20 03:39:53;;;;;;;1.35;0.60;;;13.30;73.40;;;;;;2486574;53;20998;-72
2021/05/20 03:42:20;;;;;;;2.03;0.70;;;13.30;73.40;;;;;;2563422;53;21159;-73
2021/05/20 03:44:49;;;;;;;1.52;0.60;;;13.30;73.50;;;;;;2477749;52;20933;-73
2021/05/20 03:47:15;;;;;;;1.40;0.70;;;13.30;73.40;;;;;;2313538;54;20979;-72
2021/05/20 03:49:41;;;;;;;1.62;0.65;;;13.30;73.50;;;;;;2342314;54;21570;-72
2021/05/20 03:52:07;;;;;;;1.73;0.70;;;13.30;73.60;;;;;;2342315;54;20930;-72
2021/05/20 03:54:39;;;;;;;1.75;0.70;;;13.30;73.60;;;;;;2342230;54;20939;-74
2021/05/20 03:57:06;;;;;;;3.00;0.70;;;13.30;73.60;;;;;;2342533;54;20906;-71
2021/05/20 03:59:32;;;;;;;2.20;0.80;;;13.30;73.60;;;;;;2342202;54;20942;-72
2021/05/20 04:01:58;;;;;;;1.37;0.65;;;13.30;73.70;;;;;;2346150;54;20947;-72
2021/05/20 04:04:24;;;;;;;1.40;0.68;;;13.30;73.70;;;;;;2334104;54;20974;-72
2021/05/20 04:06:53;;;;;;;3.37;0.75;;;13.30;73.70;;;;;;2332241;53;20948;-73
2021/05/20 04:09:20;;;;;;;1.65;0.75;;;13.30;73.70;;;;;;2326492;54;20925;-72
2021/05/20 04:11:46;;;;;;;1.50;0.60;;;13.30;73.70;;;;;;2341810;54;20934;-72
2021/05/20 04:14:12;;;;;;;1.70;0.70;;;13.30;73.80;;;;;;2340257;54;21003;-72
2021/05/20 04:16:41;;;;;;;1.77;0.73;;;13.30;73.80;;;;;;2338992;54;21720;-73
2021/05/20 04:19:07;;;;;;;1.85;0.70;;;13.30;73.80;;;;;;2342190;54;20962;-73
2021/05/20 04:21:34;;;;;;;1.75;0.70;;;13.30;73.80;;;;;;2345476;54;20982;-72
2021/05/20 04:24:01;;;;;;;1.50;0.60;;;13.40;73.80;;;;;;2338476;54;20930;-73
2021/05/20 04:26:28;;;;;;;1.70;0.70;;;13.40;74.00;;;;;;2334603;54;21014;-72
2021/05/20 04:28:57;;;;;;;2.33;0.93;;;13.40;74.00;;;;;;2341979;54;20994;-72
2021/05/20 04:31:23;;;;;;;1.98;0.80;;;13.40;74.00;;;;;;2457473;52;21771;-72
2021/05/20 04:33:50;;;;;;;1.50;0.75;;;13.40;74.00;;;;;;2318538;54;20944;-72
2021/05/20 04:36:16;;;;;;;1.25;0.60;;;13.40;74.00;;;;;;2480966;52;21223;-73
2021/05/20 04:38:52;;;;;;;1.50;0.70;;;13.40;74.00;;;;;;2344215;54;21460;-73
2021/05/20 04:41:18;;;;;;;1.73;0.77;;;13.40;73.70;;;;;;2335263;54;20918;-72
2021/05/20 04:43:45;;;;;;;2.20;0.65;;;13.40;74.00;;;;;;2342046;53;21450;-73
2021/05/20 04:46:12;;;;;;;1.52;0.70;;;13.40;74.00;;;;;;2342241;54;21806;-72
2021/05/20 04:48:38;;;;;;;1.90;0.80;;;13.40;74.00;;;;;;2337541;54;21422;-73
2021/05/20 04:51:05;;;;;;;1.85;0.65;;;13.40;74.10;;;;;;2580495;52;21402;-72
2021/05/20 04:53:31;;;;;;;1.73;0.70;;;13.40;74.20;;;;;;2340404;54;20918;-71
2021/05/20 04:55:58;;;;;;;0.75;0.40;;;13.50;74.50;;;;;;2341313;54;21502;-72
2021/05/20 04:58:25;;;;;;;1.62;0.77;;;13.50;74.50;;;;;;2337793;54;20934;-72
2021/05/20 05:00:51;;;;;;;1.80;0.73;;;13.50;74.60;;;;;;2329845;54;21833;-72
2021/05/20 05:03:18;;;;;;;1.40;0.70;;;13.50;74.70;;;;;;2345258;54;21062;-72
2021/05/20 05:05:45;;;;;;;2.20;0.80;;;13.60;74.70;;;;;;2354665;53;20964;-72
2021/05/20 05:08:11;;;;;;;2.12;0.88;;;13.60;74.70;;;;;;2419268;53;20981;-71
2021/05/20 05:10:37;;;;;;;2.78;1.00;;;13.60;74.50;;;;;;2325837;54;20968;-71
2021/05/20 05:13:03;;;;;;;1.60;0.88;;;13.60;74.60;;;;;;2426772;53;20923;-72
2021/05/20 05:15:30;;;;;;;1.87;0.80;;;13.70;74.70;;;;;;2341885;54;20935;-73
2021/05/20 05:17:56;;;;;;;1.73;0.80;;;13.70;74.80;;;;;;2338381;54;20978;-72
2021/05/20 05:20:23;;;;;;;1.90;0.70;;;13.70;74.80;;;;;;2342575;54;20958;-72
2021/05/20 05:22:50;;;;;;;1.27;0.50;;;13.70;74.90;;;;;;2342336;54;20982;-72
2021/05/20 05:25:16;;;;;;;2.50;0.90;;;13.80;75.00;;;;;;2412307;52;21406;-72
2021/05/20 05:27:42;;;;;;;1.33;0.60;;;13.80;75.00;;;;;;2583143;52;20972;-72
2021/05/20 05:30:10;;;;;;;2.22;0.90;;;13.90;75.00;;;;;;2584155;52;20946;-72
2021/05/20 05:32:37;;;;;;;1.92;0.90;;;13.90;74.90;;;;;;2571335;52;20979;-72
2021/05/20 05:35:04;;;;;;;2.00;0.70;;;13.90;74.70;;;;;;2319223;54;21024;-72
2021/05/20 05:37:30;;;;;;;2.70;1.50;;;13.90;74.70;;;;;;2344079;53;21715;-73
2021/05/20 05:39:56;;;;;;;3.87;2.87;;;13.90;74.60;;;;;;2334760;54;20946;-73
2021/05/20 05:42:24;;;;;;;4.72;3.85;;;14.00;74.70;;;;;;2579491;52;20955;-72
2021/05/20 05:44:53;;;;;;;4.53;3.40;;;14.00;74.50;;;;;;2584030;52;20941;-72
2021/05/20 05:47:20;;;;;;;3.33;2.10;;;14.00;74.20;;;;;;2341948;54;20903;-72
2021/05/20 05:50:27;;;;;;;2.80;1.40;;;14.00;74.20;;;;;;2334337;54;20930;-73
2021/05/20 05:52:54;;;;;;;3.03;1.40;;;14.00;73.50;;;;;;2428643;52;21447;-72
2021/05/20 05:55:20;;;;;;;2.30;1.02;;;14.00;74.40;;;;;;2336964;54;20937;-72
2021/05/20 05:57:46;;;;;;;1.55;0.70;;;14.00;74.60;;;;;;2342368;54;20911;-73
2021/05/20 06:00:14;;;;;;;1.75;0.80;;;14.00;74.50;;;;;;2342125;54;21022;-73
2021/05/20 06:02:42;;;;;;;1.70;0.70;;;14.00;74.40;;;;;;2577951;53;20978;-72
2021/05/20 06:05:08;;;;;;;3.75;0.80;;;14.10;74.60;;;;;;2341413;54;20982;-73
2021/05/20 06:07:35;;;;;;;0.98;0.50;;;14.10;74.50;;;;;;2342449;54;20950;-72
2021/05/20 06:10:07;;;;;;;3.58;1.15;;;14.10;74.60;;;;;;2363524;53;21421;-72
2021/05/20 06:12:33;;;;;;;;;;;14.10;74.30;;;;;;2582315;53;21724;-72
2021/05/20 06:15:00;;;;;;;1.48;0.68;;;14.20;73.70;;;;;;2325317;54;20131;-73
2021/05/20 06:17:26;;;;;;;1.58;0.65;;;14.20;74.40;;;;;;2323818;54;20942;-72
2021/05/20 06:19:53;;;;;;;1.65;0.50;;;14.20;74.40;;;;;;2527972;52;21080;-72
2021/05/20 06:22:22;;;;;;;1.20;0.50;;;14.20;74.30;;;;;;2475453;52;21700;-72
2021/05/20 06:24:48;;;;;;;1.95;0.62;;;14.20;74.30;;;;;;2483770;52;20910;-71
2021/05/20 06:27:16;;;;;;;1.67;0.50;;;14.30;74.80;;;;;;2318296;54;20932;-72
2021/05/20 06:29:42;;;;;;;1.55;0.70;;;14.30;74.80;;;;;;2327633;54;20918;-72
2021/05/20 06:32:09;;;;;;;1.23;0.50;;;14.30;74.80;;;;;;2511917;52;20965;-73
2021/05/20 06:34:35;;;;;;;1.10;0.45;;;14.30;74.80;;;;;;2417899;52;21816;-72
2021/05/20 06:37:03;;;;;;;1.08;0.50;;;14.40;74.80;;;;;;2455031;53;21020;-73
2021/05/20 06:39:32;;;;;;;1.98;0.60;;;14.40;74.70;;;;;;2341756;54;20918;-72
2021/05/20 06:41:59;;;;;;;1.50;0.60;;;14.40;74.80;;;;;;2342040;54;21376;-73
2021/05/20 06:44:28;;;;;;;1.48;0.60;;;14.50;74.80;;;;;;2342219;54;20938;-72
2021/05/20 06:46:54;;;;;;;0.93;0.50;;;14.50;74.50;;;;;;2341618;54;20935;-73
2021/05/20 06:49:21;;;;;;;1.17;0.55;;;14.60;74.60;;;;;;2565105;53;20940;-73
2021/05/20 06:51:48;;;;;;;1.42;0.60;;;14.60;74.60;;;;;;2387910;53;21032;-72
2021/05/20 06:54:15;;;;;;;1.75;0.70;;;14.60;74.30;;;;;;2340226;54;20942;-72
2021/05/20 06:56:43;;;;;;;1.60;0.70;;;14.60;74.30;;;;;;2338813;54;20979;-73
2021/05/20 07:01:55;;;;;;;2.67;1.10;;;14.70;74.50;;;;;;2574289;52;21702;-73
2021/05/20 07:04:21;;;;;;;2.80;0.93;;;14.70;74.00;;;;;;2337979;54;20931;-72
2021/05/20 07:06:47;;;;;;;2.78;0.95;;;14.70;74.00;;;;;;2336640;54;20949;-72
2021/05/20 07:09:25;;;;;;;1.75;0.77;;;14.70;73.70;;;;;;2335936;54;20961;-72
2021/05/20 07:11:51;;;;;;;1.30;0.60;;;14.70;74.00;;;;;;2545031;53;20995;-72
2021/05/20 07:14:18;;;;;;;1.62;0.70;;;14.70;74.10;;;;;;2335850;53;21380;-72
2021/05/20 07:16:44;;;;;;;2.30;0.90;;;14.70;74.20;;;;;;2536974;52;21596;-71
2021/05/20 07:19:10;;;;;;;1.98;0.70;;;14.80;74.30;;;;;;2323480;54;20948;-73
2021/05/20 07:21:37;;;;;;;1.70;0.62;;;14.80;74.00;;;;;;2330612;54;21467;-72
2021/05/20 07:24:05;;;;;;;3.08;0.98;;;14.80;74.00;;;;;;2585767;52;20959;-72
2021/05/20 07:26:31;;;;;;;1.73;0.82;;;14.80;74.00;;;;;;2377576;52;21010;-72
2021/05/20 07:29:01;;;;;;;3.53;1.10;;;14.80;74.10;;;;;;2334276;54;22023;-74
2021/05/20 07:31:28;;;;;;;5.05;1.02;;;14.90;73.60;;;;;;2586416;52;20931;-72
2021/05/20 07:33:54;;;;;;;3.28;1.55;;;14.90;74.10;;;;;;2342086;54;20922;-72
2021/05/20 07:36:22;;;;;;;3.20;1.70;;;14.90;74.40;;;;;;2342048;54;21712;-73
2021/05/20 07:38:49;;;;;;;2.60;1.20;;;14.90;74.90;;;;;;2588077;52;20967;-73
2021/05/20 07:41:15;;;;;;;2.72;1.37;;;15.00;75.00;;;;;;2577962;52;21410;-73
2021/05/20 07:43:42;;;;;;;2.90;1.40;;;15.10;75.10;;;;;;2320061;54;20993;-77
2021/05/20 07:46:09;;;;;;;2.92;1.27;;;15.20;75.30;;;;;;2341430;53;21292;-73
2021/05/20 07:48:36;;;;;;;2.20;1.00;;;15.20;75.40;;;;;;2340390;54;20944;-72
2021/05/20 07:51:04;;;;;;;2.17;1.08;;;15.30;75.70;;;;;;2341930;54;21065;-73
2021/05/20 07:53:34;;;;;;;3.20;1.20;;;15.40;76.30;;;;;;2334559;54;20942;-72
2021/05/20 07:56:00;;;;;;;2.30;1.30;;;15.50;76.80;;;;;;2421520;52;20938;-73
2021/05/20 07:58:28;;;;;;;2.47;1.15;;;15.60;76.80;;;;;;2337700;54;20928;-74
2021/05/20 08:00:55;;;;;;;3.50;1.37;;;15.70;76.30;;;;;;2575732;53;21016;-73
2021/05/20 08:11:07;;;;;;;2.87;1.45;;;16.00;74.70;;;;;;2411656;53;21033;-73
2021/05/20 08:13:33;;;;;;;3.15;1.40;;;16.10;74.20;;;;;;2555309;53;21790;-73
2021/05/20 08:16:01;;;;;;;2.85;1.55;;;16.20;75.10;;;;;;2318226;54;20987;-74
2021/05/20 08:18:30;;;;;;;4.05;1.55;;;16.30;76.20;;;;;;2300321;54;20941;-74
2021/05/20 08:20:57;;;;;;;2.85;1.33;;;16.40;76.30;;;;;;2308816;54;20948;-72
2021/05/20 08:23:24;;;;;;;2.85;1.50;;;16.60;76.80;;;;;;2330107;53;20918;-73
2021/05/20 08:25:50;;;;;;;4.35;1.70;;;16.70;77.10;;;;;;2322829;53;21107;-73
2021/05/20 08:28:17;;;;;;;3.75;1.50;;;16.80;76.10;;;;;;2314931;55;20991;-72
2021/05/20 08:30:47;;;;;;;2.40;1.35;;;16.90;75.70;;;;;;2554845;53;21083;-73
2021/05/20 08:33:13;;;;;;;3.95;2.22;;;17.00;74.40;;;;;;2314362;55;21519;-72
2021/05/20 08:35:40;;;;;;;2.95;1.67;;;17.00;73.80;;;;;;2310999;54;21009;-75
2021/05/20 08:38:06;;;;;;;3.20;1.52;;;17.00;72.50;;;;;;2328684;54;20938;-74
2021/05/20 08:40:32;;;;;;;2.90;1.40;;;16.90;71.10;;;;;;2319134;54;20929;-75
2021/05/20 08:42:59;;;;;;;3.03;1.40;;;16.80;69.60;;;;;;2324475;54;21206;-75
2021/05/20 08:45:26;;;;;;;2.47;1.15;;;16.70;69.00;;;;;;2341523;54;20956;-75
2021/05/20 08:47:53;;;;;;;2.17;1.00;;;16.50;67.90;;;;;;2342499;55;20942;-75
2021/05/20 08:50:23;;;;;;;1.85;0.90;;;16.20;68.10;;;;;;2324558;54;20996;-75
2021/05/20 08:52:49;;;;;;;2.15;0.85;;;16.00;68.70;;;;;;2565047;53;20933;-75
2021/05/20 08:55:30;;;;;;;2.33;1.00;;;15.80;69.50;;;;;;2360178;53;21060;-75
2021/05/20 08:57:57;;;;;;;2.47;1.00;;;15.60;69.60;;;;;;2318610;54;21003;-75
2021/05/20 09:00:25;;;;;;;2.35;1.00;;;15.40;70.10;;;;;;2400293;53;20982;-75
2021/05/20 09:02:51;;;;;;;1.98;0.90;;;15.30;70.80;;;;;;2342767;54;20985;-75
2021/05/20 09:05:20;;;;;;;3.58;2.00;;;15.20;71.30;;;;;;2361209;53;21013;-75
2021/05/20 09:07:52;;;;;;;5.65;3.28;;;15.10;72.00;;;;;;2342027;54;20937;-75
2021/05/20 09:10:31;;;;;;;6.70;3.80;;;15.10;72.80;;;;;;2498982;53;21013;-75
2021/05/20 09:13:07;;;;;;;4.90;2.58;;;15.10;73.40;;;;;;2588973;53;20910;-75
2021/05/20 09:15:52;;;;;;;5.20;2.20;;;15.10;74.40;;;;;;2315870;55;21013;-75
2021/05/20 09:18:25;;;;;;;3.85;2.00;;;15.10;74.70;;;;;;2352126;54;21025;-75
2021/05/20 09:21:03;;;;;;;3.50;1.75;;;15.20;75.90;;;;;;2346491;53;21613;-75
2021/05/20 09:23:31;;;;;;;3.65;1.52;;;15.20;76.20;;;;;;2342284;54;20941;-75
2021/05/20 09:26:08;;;;;;;2.40;1.30;;;15.30;76.30;;;;;;2438776;53;20933;-75
2021/05/20 09:28:40;;;;;;;3.10;1.60;;;15.40;75.60;;;;;;2321156;55;21024;-75
2021/05/20 09:31:08;;;;;;;2.95;1.70;;;15.50;75.20;;;;;;2318712;54;21099;-75
2021/05/20 09:33:34;;;;;;;3.22;1.70;;;15.50;74.80;;;;;;2494188;53;20921;-75
2021/05/20 09:36:01;;;;;;;2.05;1.20;;;15.50;74.70;;;;;;2441283;53;20969;-75
2021/05/20 09:38:27;;;;;;;2.25;1.30;;;15.60;75.00;;;;;;2586795;53;20969;-75
2021/05/20 09:40:59;;;;;;;2.53;1.30;;;15.60;74.90;;;;;;2340206;54;20941;-75
2021/05/20 09:43:35;;;;;;;2.33;1.17;;;15.60;75.00;;;;;;2328321;54;21004;-75
2021/05/20 09:46:19;;;;;;;2.90;1.23;;;15.70;75.10;;;;;;2341195;54;20943;-75
2021/05/20 09:48:47;;;;;;;2.90;1.80;;;15.70;74.70;;;;;;2340467;55;20945;-74
2021/05/20 09:51:29;;;;;;;3.28;1.80;;;15.80;74.80;;;;;;2509729;53;21160;-74
2021/05/20 09:53:58;;;;;;;3.33;2.05;;;15.80;73.70;;;;;;2547197;53;20889;-74
2021/05/20 09:56:34;;;;;;;3.53;2.40;;;15.80;74.00;;;;;;2339931;54;21005;-74
2021/05/20 09:59:01;;;;;;;3.40;2.10;;;15.80;73.60;;;;;;2340073;54;21044;-74
2021/05/20 10:01:27;;;;;;;3.20;2.08;;;15.80;74.80;;;;;;2373183;54;21075;-74
2021/05/20 10:03:56;;;;;;;3.10;2.10;;;15.90;75.80;;;;;;2338551;53;20936;-74
2021/05/20 10:06:42;;;;;;;4.62;2.85;;;16.00;76.20;;;;;;2339767;54;21815;-73
2021/05/20 10:09:13;;;;;;;3.42;2.12;;;16.10;75.00;;;;;;2568295;53;20902;-75
2021/05/20 10:11:41;;;;;;;4.12;2.58;;;16.10;75.60;;;;;;2558370;53;21084;-76
2021/05/20 10:14:08;;;;;;;3.15;2.10;;;16.20;73.80;;;;;;2336853;54;21677;-75
2021/05/20 10:16:40;;;;;;;3.15;2.03;;;16.20;73.80;;;;;;2436121;53;21636;-74
2021/05/20 10:19:06;;;;;;;3.50;2.47;;;16.20;73.50;;;;;;2588703;53;20932;-73
2021/05/20 10:21:33;;;;;;;3.80;1.90;;;16.20;73.20;;;;;;2420214;53;20996;-74
2021/05/20 10:23:59;;;;;;;3.50;2.25;;;16.20;73.20;;;;;;2468512;53;20941;-72
2021/05/20 10:26:26;;;;;;;4.15;2.10;;;16.20;72.80;;;;;;2315755;54;20992;-73
2021/05/20 10:28:52;;;;;;;3.10;1.80;;;16.20;72.80;;;;;;2313669;54;20980;-73
2021/05/20 10:31:20;;;;;;;4.18;2.12;;;16.20;73.10;;;;;;2302517;54;21028;-73
2021/05/20 10:33:47;;;;;;;3.55;2.08;;;16.20;73.50;;;;;;2380281;53;21874;-74
2021/05/20 10:36:25;;;;;;;4.05;2.40;;;16.30;74.60;;;;;;2555552;53;21765;-74
2021/05/20 10:38:51;;;;;;;4.15;2.60;;;16.40;74.40;;;;;;2483309;53;21455;-73
2021/05/20 10:41:23;;;;;;;3.65;2.00;;;16.50;76.00;;;;;;2549655;52;20931;-73
2021/05/20 10:43:50;;;;;;;3.80;2.30;;;16.60;75.80;;;;;;2342691;54;20929;-74
2021/05/20 10:46:18;;;;;;;3.53;2.08;;;16.70;73.70;;;;;;2378301;52;20951;-73
2021/05/20 10:48:51;;;;;;;4.35;1.95;;;16.80;73.00;;;;;;2341691;54;21760;-75
2021/05/20 10:51:25;;;;;;;3.08;1.62;;;16.80;72.10;;;;;;2338065;54;21008;-74
2021/05/20 10:54:09;;;;;;;2.87;1.52;;;16.80;71.70;;;;;;2462515;52;20942;-74
2021/05/20 10:56:56;;;;;;;2.62;1.40;;;16.80;72.00;;;;;;2555777;53;21064;-73
2021/05/20 10:59:33;;;;;;;4.18;1.48;;;16.80;71.10;;;;;;2341564;54;20958;-73
2021/05/20 11:02:02;;;;;;;3.67;2.10;;;16.70;71.20;;;;;;2341647;54;20930;-73
2021/05/20 11:04:32;;;;;;;4.12;2.05;;;16.70;71.80;;;;;;2341808;54;20954;-73
2021/05/20 11:06:59;;;;;;;3.08;1.65;;;16.70;71.70;;;;;;2341663;54;21020;-73
2021/05/20 11:09:44;;;;;;;4.50;1.67;;;16.70;72.20;;;;;;2317722;54;20996;-73
2021/05/20 11:12:10;;;;;;;2.90;1.70;;;16.70;71.30;;;;;;2341963;53;21080;-72
2021/05/20 11:14:36;;;;;;;2.33;1.30;;;16.70;72.80;;;;;;2314821;54;20949;-73
2021/05/20 11:17:32;;;;;;;3.05;1.58;;;16.70;72.90;;;;;;2314887;54;21076;-74
2021/05/20 11:20:31;;;;;;;2.55;1.35;;;16.80;71.70;;;;;;2315239;54;20996;-73
2021/05/20 11:29:48;;;;;;;3.30;1.60;;;16.90;72.70;;;;;;2314576;54;20980;-72
2021/05/20 11:32:32;;;;;;;2.97;1.30;;;17.50;75.10;;;;;;2314680;54;21005;-73
2021/05/20 11:35:37;;;;;;;2.78;1.40;;;17.60;76.60;;;;;;2314482;54;20977;-73
2021/05/20 11:38:03;;;;;;;3.92;1.90;;;17.80;74.90;;;;;;2314627;54;20966;-73
2021/05/20 11:40:32;;;;;;;3.62;1.70;;;18.00;74.70;;;;;;2320750;54;20952;-74
2021/05/20 11:42:59;;;;;;;3.45;1.80;;;18.10;74.40;;;;;;2308056;54;21466;-73
2021/05/20 11:45:32;;;;;;;2.85;1.60;;;18.10;74.80;;;;;;2311019;54;20968;-74
2021/05/20 11:48:03;;;;;;;2.75;1.65;;;18.20;74.40;;;;;;2352965;53;21414;-73
2021/05/20 11:50:29;;;;;;;2.30;1.30;;;18.30;74.70;;;;;;2329550;54;21028;-74
2021/05/20 11:52:56;;;;;;;2.50;1.42;;;18.40;75.30;;;;;;2325682;54;21040;-73
2021/05/20 11:55:23;;;;;;;3.33;1.52;;;18.50;74.90;;;;;;2419319;53;20981;-73
2021/05/20 11:58:02;;;;;;;3.65;1.83;;;18.60;74.50;;;;;;2341077;55;20989;-74
2021/05/20 12:00:28;;;;;;;3.25;1.77;;;18.70;71.90;;;;;;2341364;54;21486;-72
2021/05/20 12:02:57;;;;;;;3.25;1.60;;;18.80;73.00;;;;;;2341330;55;20917;-74
2021/05/20 12:05:24;;;;;;;2.65;1.60;;;18.80;72.80;;;;;;2341358;55;20917;-74
2021/05/20 12:08:16;;;;;;;2.50;1.20;;;18.80;72.30;;;;;;2587905;53;20941;-73
2021/05/20 12:10:50;;;;;;;2.83;1.33;;;18.90;72.30;;;;;;2322279;55;20993;-73
2021/05/20 12:13:16;;;;;;;2.30;1.20;;;18.80;71.10;;;;;;2337251;54;20973;-72
2021/05/20 12:15:46;;;;;;;2.97;1.12;;;18.90;72.00;;;;;;2318992;54;20929;-73
2021/05/20 12:18:12;;;;;;;2.42;1.40;;;18.90;71.50;;;;;;2313650;54;21357;-72
2021/05/20 12:20:43;;;;;;;2.95;1.33;;;18.90;72.10;;;;;;2373635;53;21528;-73
2021/05/20 12:23:09;;;;;;;2.50;1.33;;;18.90;71.40;;;;;;2313035;54;21435;-73
2021/05/20 12:25:37;;;;;;;2.70;1.45;;;19.00;72.50;;;;;;2316989;53;21242;-72
2021/05/20 12:28:03;;;;;;;2.60;1.40;;;19.00;71.90;;;;;;2574039;53;20921;-73
2021/05/20 12:30:37;;;;;;;3.55;1.62;;;19.00;71.90;;;;;;2330133;54;20972;-72
2021/05/20 12:33:07;;;;;;;2.83;1.50;;;19.10;72.00;;;;;;2324141;54;20928;-73
2021/05/20 12:35:41;;;;;;;3.03;1.30;;;19.10;70.40;;;;;;2333879;54;20959;-73
2021/05/20 12:38:14;;;;;;;2.58;1.20;;;19.10;70.10;;;;;;2324212;54;20916;-73
2021/05/20 12:40:57;;;;;;;2.22;1.10;;;19.10;69.60;;;;;;2332555;54;20928;-73
2021/05/20 12:43:31;;;;;;;2.97;1.65;;;19.10;68.60;;;;;;2339898;54;21008;-73
2021/05/20 12:46:06;;;;;;;3.20;1.23;;;19.10;68.30;;;;;;2294384;54;20943;-73
2021/05/20 12:48:46;;;;;;;2.37;1.30;;;19.00;68.50;;;;;;2331550;53;21298;-74
2021/05/20 12:51:30;;;;;;;3.15;1.40;;;19.00;67.20;;;;;;2343928;54;20989;-75
2021/05/20 12:54:04;;;;;;;4.32;1.48;;;19.00;67.20;;;;;;2322979;54;21060;-72
2021/05/20 12:56:41;;;;;;;2.80;1.17;;;18.90;68.40;;;;;;2315906;54;21023;-74
2021/05/20 12:59:12;;;;;;;1.92;1.08;;;18.80;68.00;;;;;;2297540;53;21184;-74
2021/05/20 13:01:43;;;;;;;2.55;1.00;;;18.80;68.50;;;;;;2320960;54;21068;-74
2021/05/20 13:04:32;;;;;;;1.85;0.88;;;18.70;68.90;;;;;;2312929;54;20954;-72
2021/05/20 13:06:59;;;;;;;4.68;1.73;;;18.70;67.10;;;;;;2337927;54;21029;-74
2021/05/20 13:09:44;;;;;;;2.30;1.10;;;18.60;68.90;;;;;;2340950;54;20915;-73
2021/05/20 13:12:27;;;;;;;1.90;0.90;;;18.60;67.30;;;;;;2507949;52;20962;-73
2021/05/20 13:15:01;;;;;;;;;;;18.60;69.10;;;;;;2347643;54;21538;-73